Accueil
METAR-TAF:

METAR-TAF

Aéroports :

Beauvechain, Belgique

Base aérienne de Beauvechain

latitude: 50-45N, longitude: 004-46E, altitude: 105 m

Observation

Le bulletin a été fait il y a 36 minutes, à 18:55 UTC
Vent 9 kt de nord/nord-ouest
Température 19°C
Humidité 60%
Pression 1025 hPa
Visibilité 10 km ou plus

METAR: EBBE 241855Z AUTO 34009KT 9999 NCD 19/11 Q1025 BLU

Heure: 21:31 (19:31 UTC)

Prévision

Le bulletin a été fait il y a 3 heures et 50 minutes, à 15:41 UTC
Prévision valable du 24 à 19 UTC au 25 à 07 UTC
Vent 5 kt de nord
Visibilité 10 km ou plus
Quelques nuages à une hauteur de 25000 ft
Evoluant progressivement
du 24 à 23 UTC au 25 à 01 UTC
Visibilité: 3000 m
brume
Temporairement
du 25 à 02 UTC au 25 à 07 UTC
Visibilité: 0500 m
Nuages fragmentés à une hauteur de 100 ft
brouillard

TAF: EBBE 241541Z 2419/2507 01005KT 9999 FEW250 BECMG 2423/2501 3000 BR TEMPO 2502/2507 0500 FG BKN001

Observations et prévisions météorologiques de plus de 4000 aéroports (messages METAR et TAF).

Les stations disponibles sont représentées par des disques jaunes et rouges sur la carte.

Passer la souris dessus pour voir le nom de la station.

Cliquer dessus pour voir les observations et prévisions météorologiques.

Pour changer de carte: cliquez sur les boutons verts avec une croix noire pour zoomer, sur le bouton vert avec un tiret pour effectuer un zoom arrière, ou sur les flèches vertes pour les cartes adjacentes.


METAR-TAF: